Time;durP1;ratioP1;P1;durP2;ratioP2;P2;SDS_P1;SDS_P2;PMS_P1;PMS_P2;Temp;Humidity;BMP_temperature;BMP_pressure;BME280_temperature;BME280_humidity;BME280_pressure;Samples;Min_cycle;Max_cycle;Signal;HPM_P1;HPM_P2
2022/07/17 00:01:12;;;;;;;;;;;;;;;;;;4985757;28;19914;-49
2022/07/17 00:03:39;;;;;;;;;;;;;;;;;;4985679;28;20315;-51
2022/07/17 00:06:05;;;;;;;;;;;;;;;;;;4985506;28;20457;-49
2022/07/17 00:08:31;;;;;;;;;;;;;;;;;;4985783;28;19965;-50
2022/07/17 00:10:57;;;;;;;;;;;;;;;;;;4986216;28;19918;-52
2022/07/17 00:13:25;;;;;;;;;;;;;;;;;;4985636;28;20984;-49
2022/07/17 00:15:52;;;;;;;;;;;;;;;;;;4985656;28;19914;-51
2022/07/17 00:18:18;;;;;;;;;;;;;;;;;;4985555;28;19924;-50
2022/07/17 00:20:44;;;;;;;;;;;;;;;;;;4985228;28;20012;-51
2022/07/17 00:23:10;;;;;;;;;;;;;;;;;;4985942;28;19920;-51
2022/07/17 00:25:36;;;;;;;;;;;;;;;;;;4985956;28;19976;-49
2022/07/17 00:28:01;;;;;;;;;;;;;;;;;;4985753;28;19913;-52
2022/07/17 00:30:28;;;;;;;;;;;;;;;;;;4986290;28;20005;-52
2022/07/17 00:32:54;;;;;;;;;;;;;;;;;;4985987;28;20168;-52
2022/07/17 00:35:20;;;;;;;;;;;;;;;;;;4985584;28;20008;-50
2022/07/17 00:37:46;;;;;;;;;;;;;;;;;;4985390;28;20130;-52
2022/07/17 00:40:13;;;;;;;;;;;;;;;;;;4985568;28;19917;-50
2022/07/17 00:42:43;;;;;;;;;;;;;;;;;;4985427;28;19916;-51
2022/07/17 00:45:09;;;;;;;;;;;;;;;;;;4985645;28;19932;-49
2022/07/17 00:47:35;;;;;;;;;;;;;;;;;;4985436;28;19909;-50
2022/07/17 00:50:00;;;;;;;;;;;;;;;;;;4985128;28;19914;-50
2022/07/17 00:52:27;;;;;;;;;;;;;;;;;;4986216;28;20457;-49
2022/07/17 00:54:54;;;;;;;;;;;;;;;;;;4985900;28;20429;-49
2022/07/17 00:57:20;;;;;;;;;;;;;;;;;;4985260;28;20379;-51
2022/07/17 00:59:47;;;;;;;;;;;;;;;;;;4985137;28;20154;-52
2022/07/17 01:02:16;;;;;;;;;;;;;;;;;;4985595;28;19953;-49
2022/07/17 01:04:42;;;;;;;;;;;;;;;;;;4987251;28;20346;-52
2022/07/17 01:07:08;;;;;;;;;;;;;;;;;;4988932;28;19914;-50
2022/07/17 01:09:34;;;;;;;;;;;;;;;;;;4988823;28;19913;-51
2022/07/17 01:12:00;;;;;;;;;;;;;;;;;;4988866;28;19917;-50
2022/07/17 01:14:26;;;;;;;;;;;;;;;;;;4989471;28;19913;-51
2022/07/17 01:16:52;;;;;;;;;;;;;;;;;;4988773;28;20373;-52
2022/07/17 01:19:17;;;;;;;;;;;;;;;;;;4988600;28;19910;-52
2022/07/17 01:21:44;;;;;;;;;;;;;;;;;;4988757;28;19917;-49
2022/07/17 01:24:10;;;;;;;;;;;;;;;;;;4988697;28;20112;-51
2022/07/17 01:26:37;;;;;;;;;;;;;;;;;;4988577;28;19965;-52
2022/07/17 01:29:04;;;;;;;;;;;;;;;;;;4988734;28;20044;-49
2022/07/17 01:31:30;;;;;;;;;;;;;;;;;;4988469;28;19980;-52
2022/07/17 01:33:56;;;;;;;;;;;;;;;;;;4988782;28;20346;-50
2022/07/17 01:36:23;;;;;;;;;;;;;;;;;;4988230;28;20007;-50
2022/07/17 01:38:49;;;;;;;;;;;;;;;;;;4988249;28;19910;-52
2022/07/17 01:41:16;;;;;;;;;;;;;;;;;;4988446;28;19917;-53
2022/07/17 01:43:43;;;;;;;;;;;;;;;;;;4987922;28;19960;-48
2022/07/17 01:46:09;;;;;;;;;;;;;;;;;;4988277;28;19949;-49
2022/07/17 01:48:35;;;;;;;;;;;;;;;;;;4988234;28;20080;-50
2022/07/17 01:51:01;;;;;;;;;;;;;;;;;;4988307;28;19910;-48
2022/07/17 01:53:26;;;;;;;;;;;;;;;;;;4988832;28;19914;-49
2022/07/17 01:55:53;;;;;;;;;;;;;;;;;;4987901;28;19984;-52
2022/07/17 01:58:20;;;;;;;;;;;;;;;;;;4987866;28;19997;-52
2022/07/17 02:00:47;;;;;;;;;;;;;;;;;;4987626;28;19924;-53
2022/07/17 02:03:14;;;;;;;;;;;;;;;;;;4987805;28;19909;-53
2022/07/17 02:05:40;;;;;;;;;;;;;;;;;;4987814;28;19916;-53
2022/07/17 02:08:07;;;;;;;;;;;;;;;;;;4987984;28;19910;-54
2022/07/17 02:10:33;;;;;;;;;;;;;;;;;;4987930;28;19925;-51
2022/07/17 02:12:59;;;;;;;;;;;;;;;;;;4987838;28;20314;-52
2022/07/17 02:15:24;;;;;;;;;;;;;;;;;;4988322;28;19941;-53
2022/07/17 02:17:51;;;;;;;;;;;;;;;;;;4987419;28;20301;-51
2022/07/17 02:20:17;;;;;;;;;;;;;;;;;;4987708;28;20280;-51
2022/07/17 02:22:43;;;;;;;;;;;;;;;;;;4987500;28;19913;-51
2022/07/17 02:25:09;;;;;;;;;;;;;;;;;;4987595;28;19914;-51
2022/07/17 02:27:35;;;;;;;;;;;;;;;;;;4987342;28;19914;-49
2022/07/17 02:30:01;;;;;;;;;;;;;;;;;;4987764;28;19956;-50
2022/07/17 02:32:26;;;;;;;;;;;;;;;;;;4987982;28;19983;-52
2022/07/17 02:34:52;;;;;;;;;;;;;;;;;;4987319;28;19914;-51
2022/07/17 02:37:18;;;;;;;;;;;;;;;;;;4987665;28;19918;-53
2022/07/17 02:39:53;;;;;;;;;;;;;;;;;;4987108;28;19914;-52
2022/07/17 02:42:19;;;;;;;;;;;;;;;;;;4987298;28;20064;-53
2022/07/17 02:44:46;;;;;;;;;;;;;;;;;;4987058;28;19909;-53
2022/07/17 02:47:12;;;;;;;;;;;;;;;;;;4986916;28;19914;-49
2022/07/17 02:49:37;;;;;;;;;;;;;;;;;;4986981;28;19921;-53
2022/07/17 02:52:03;;;;;;;;;;;;;;;;;;4986958;28;19910;-52
2022/07/17 02:54:30;;;;;;;;;;;;;;;;;;4987059;28;20345;-53
2022/07/17 02:56:56;;;;;;;;;;;;;;;;;;4987515;28;19914;-53
2022/07/17 02:59:22;;;;;;;;;;;;;;;;;;4987170;28;19921;-51
2022/07/17 03:01:48;;;;;;;;;;;;;;;;;;4986274;28;19957;-52
2022/07/17 03:04:15;;;;;;;;;;;;;;;;;;4986774;28;19920;-51
2022/07/17 03:06:41;;;;;;;;;;;;;;;;;;4986455;28;19910;-50
2022/07/17 03:09:06;;;;;;;;;;;;;;;;;;4986769;28;19943;-51
2022/07/17 03:11:32;;;;;;;;;;;;;;;;;;4986676;28;19926;-52
2022/07/17 03:13:58;;;;;;;;;;;;;;;;;;4986886;28;19961;-48
2022/07/17 03:16:24;;;;;;;;;;;;;;;;;;4987266;28;20398;-50
2022/07/17 03:18:50;;;;;;;;;;;;;;;;;;4986260;28;19916;-52
2022/07/17 03:21:16;;;;;;;;;;;;;;;;;;4986420;28;19913;-51
2022/07/17 03:23:42;;;;;;;;;;;;;;;;;;4986436;28;20582;-49
2022/07/17 03:26:08;;;;;;;;;;;;;;;;;;4985769;28;19920;-53
2022/07/17 03:28:34;;;;;;;;;;;;;;;;;;4986436;28;20359;-52
2022/07/17 03:30:59;;;;;;;;;;;;;;;;;;4986438;28;20217;-52
2022/07/17 03:33:26;;;;;;;;;;;;;;;;;;4986906;28;19910;-48
2022/07/17 03:35:52;;;;;;;;;;;;;;;;;;4986733;28;19960;-52
2022/07/17 03:38:19;;;;;;;;;;;;;;;;;;4986694;28;20325;-50
2022/07/17 03:40:45;;;;;;;;;;;;;;;;;;4986161;28;20287;-51
2022/07/17 03:43:12;;;;;;;;;;;;;;;;;;4986128;28;19917;-51
2022/07/17 03:45:38;;;;;;;;;;;;;;;;;;4986281;28;20489;-51
2022/07/17 03:48:05;;;;;;;;;;;;;;;;;;4985876;28;20004;-51
2022/07/17 03:50:32;;;;;;;;;;;;;;;;;;4986341;28;20398;-52
2022/07/17 03:52:57;;;;;;;;;;;;;;;;;;4986408;28;19914;-53
2022/07/17 03:55:23;;;;;;;;;;;;;;;;;;4986926;28;20306;-54
2022/07/17 03:57:49;;;;;;;;;;;;;;;;;;4985669;28;19910;-51
2022/07/17 04:00:16;;;;;;;;;;;;;;;;;;4985875;28;20453;-51
2022/07/17 04:02:42;;;;;;;;;;;;;;;;;;4985587;28;19913;-51
2022/07/17 04:05:09;;;;;;;;;;;;;;;;;;4985795;28;20602;-52
2022/07/17 04:07:35;;;;;;;;;;;;;;;;;;4985570;28;19936;-49
2022/07/17 04:10:00;;;;;;;;;;;;;;;;;;4985850;28;19914;-51
2022/07/17 04:12:26;;;;;;;;;;;;;;;;;;4986288;28;19910;-52
2022/07/17 04:14:53;;;;;;;;;;;;;;;;;;4984256;28;20474;-52
2022/07/17 04:17:19;;;;;;;;;;;;;;;;;;4985682;28;19910;-51
2022/07/17 04:19:45;;;;;;;;;;;;;;;;;;4984255;28;20482;-52
2022/07/17 04:22:12;;;;;;;;;;;;;;;;;;4985636;28;19914;-49
2022/07/17 04:24:38;;;;;;;;;;;;;;;;;;4985800;28;19921;-51
2022/07/17 04:27:05;;;;;;;;;;;;;;;;;;4985616;28;19964;-52
2022/07/17 04:29:31;;;;;;;;;;;;;;;;;;4986076;28;19916;-52
2022/07/17 04:31:57;;;;;;;;;;;;;;;;;;4985918;28;20359;-53
2022/07/17 04:34:24;;;;;;;;;;;;;;;;;;4985962;28;19920;-50
2022/07/17 04:36:50;;;;;;;;;;;;;;;;;;4985447;28;20361;-51
2022/07/17 04:39:17;;;;;;;;;;;;;;;;;;4989306;28;19956;-50
2022/07/17 04:41:43;;;;;;;;;;;;;;;;;;4989261;28;20382;-53
2022/07/17 04:44:09;;;;;;;;;;;;;;;;;;4989401;28;19921;-50
2022/07/17 04:46:34;;;;;;;;;;;;;;;;;;4987478;28;19982;-50
2022/07/17 04:49:00;;;;;;;;;;;;;;;;;;4989943;28;19910;-51
2022/07/17 04:51:26;;;;;;;;;;;;;;;;;;4990152;28;19963;-53
2022/07/17 04:53:52;;;;;;;;;;;;;;;;;;4989145;28;19910;-49
2022/07/17 04:56:18;;;;;;;;;;;;;;;;;;4989344;28;20315;-50
2022/07/17 04:58:45;;;;;;;;;;;;;;;;;;4988894;28;20265;-50
2022/07/17 05:01:11;;;;;;;;;;;;;;;;;;4987491;28;20426;-50
2022/07/17 05:03:37;;;;;;;;;;;;;;;;;;4988841;28;19910;-51
2022/07/17 05:06:03;;;;;;;;;;;;;;;;;;4989208;28;20397;-53
2022/07/17 05:08:30;;;;;;;;;;;;;;;;;;4988985;28;19916;-52
2022/07/17 05:10:56;;;;;;;;;;;;;;;;;;4989347;28;19918;-53
2022/07/17 05:13:23;;;;;;;;;;;;;;;;;;4988918;28;19932;-52
2022/07/17 05:15:49;;;;;;;;;;;;;;;;;;4988657;28;19914;-53
2022/07/17 05:18:15;;;;;;;;;;;;;;;;;;4988570;28;19921;-52
2022/07/17 05:20:42;;;;;;;;;;;;;;;;;;4988555;28;20401;-49
2022/07/17 05:23:08;;;;;;;;;;;;;;;;;;4988902;28;19917;-52
2022/07/17 05:25:34;;;;;;;;;;;;;;;;;;4988719;28;19928;-51
2022/07/17 05:28:01;;;;;;;;;;;;;;;;;;4988565;28;19910;-50
2022/07/17 05:30:28;;;;;;;;;;;;;;;;;;4989135;28;19909;-52
2022/07/17 05:32:55;;;;;;;;;;;;;;;;;;4988817;28;19945;-52
2022/07/17 05:35:22;;;;;;;;;;;;;;;;;;4988832;28;19910;-51
2022/07/17 05:37:47;;;;;;;;;;;;;;;;;;4988421;28;20937;-51
2022/07/17 05:40:13;;;;;;;;;;;;;;;;;;4988440;28;19914;-52
2022/07/17 05:42:39;;;;;;;;;;;;;;;;;;4988167;28;19918;-51
2022/07/17 05:45:06;;;;;;;;;;;;;;;;;;4988426;28;19918;-53
2022/07/17 05:47:32;;;;;;;;;;;;;;;;;;4988695;28;19917;-50
2022/07/17 05:49:58;;;;;;;;;;;;;;;;;;4999587;28;20304;-51
2022/07/17 05:52:24;;;;;;;;;;;;;;;;;;4993760;28;19910;-52
2022/07/17 05:54:50;;;;;;;;;;;;;;;;;;4990108;28;19956;-51
2022/07/17 05:57:16;;;;;;;;;;;;;;;;;;4995654;28;19910;-50
2022/07/17 05:59:41;;;;;;;;;;;;;;;;;;5007991;28;20474;-52
2022/07/17 06:02:08;;;;;;;;;;;;;;;;;;5008069;28;19914;-52
2022/07/17 06:04:35;;;;;;;;;;;;;;;;;;5007913;28;19913;-53
2022/07/17 06:07:02;;;;;;;;;;;;;;;;;;5008173;28;19913;-49
2022/07/17 06:09:28;;;;;;;;;;;;;;;;;;5008366;28;20333;-52
2022/07/17 06:11:55;;;;;;;;;;;;;;;;;;5008193;28;19925;-52
2022/07/17 06:14:21;;;;;;;;;;;;;;;;;;5007438;28;20401;-52
2022/07/17 06:16:48;;;;;;;;;;;;;;;;;;5007564;28;20000;-53
2022/07/17 06:19:14;;;;;;;;;;;;;;;;;;5007627;28;19913;-53
2022/07/17 06:21:40;;;;;;;;;;;;;;;;;;5007777;28;20366;-49
2022/07/17 06:24:06;;;;;;;;;;;;;;;;;;5007499;28;20302;-52
2022/07/17 06:26:32;;;;;;;;;;;;;;;;;;5007458;28;19914;-49
2022/07/17 06:28:58;;;;;;;;;;;;;;;;;;5006708;28;19960;-51
2022/07/17 06:31:24;;;;;;;;;;;;;;;;;;5008005;28;19968;-50
2022/07/17 06:33:50;;;;;;;;;;;;;;;;;;5007123;28;20194;-53
2022/07/17 06:36:16;;;;;;;;;;;;;;;;;;5007333;28;20221;-52
2022/07/17 06:38:43;;;;;;;;;;;;;;;;;;5007116;28;19909;-48
2022/07/17 06:41:10;;;;;;;;;;;;;;;;;;5006719;28;19961;-42
2022/07/17 06:43:36;;;;;;;;;;;;;;;;;;4999704;28;20369;-41
2022/07/17 06:46:02;;;;;;;;;;;;;;;;;;4992801;28;19920;-41
2022/07/17 06:48:28;;;;;;;;;;;;;;;;;;5007644;28;19918;-41
2022/07/17 06:50:54;;;;;;;;;;;;;;;;;;5007488;28;19924;-41
2022/07/17 06:53:20;;;;;;;;;;;;;;;;;;5008310;28;19916;-41
2022/07/17 06:55:46;;;;;;;;;;;;;;;;;;5007682;28;20004;-41
2022/07/17 06:58:12;;;;;;;;;;;;;;;;;;5008140;28;19971;-43
2022/07/17 07:00:38;;;;;;;;;;;;;;;;;;5000303;28;19961;-42
2022/07/17 07:03:04;;;;;;;;;;;;;;;;;;4993227;28;20008;-41
2022/07/17 07:05:30;;;;;;;;;;;;;;;;;;4995454;28;20013;-41
2022/07/17 07:07:56;;;;;;;;;;;;;;;;;;4988591;28;19917;-41
2022/07/17 07:10:22;;;;;;;;;;;;;;;;;;4991127;28;20283;-42
2022/07/17 07:12:48;;;;;;;;;;;;;;;;;;4991896;28;19925;-41
2022/07/17 07:15:14;;;;;;;;;;;;;;;;;;5002074;28;19917;-41
2022/07/17 07:17:40;;;;;;;;;;;;;;;;;;5006796;28;19941;-41
2022/07/17 07:20:06;;;;;;;;;;;;;;;;;;5006523;28;19917;-41
2022/07/17 07:22:32;;;;;;;;;;;;;;;;;;5002506;28;19961;-41
2022/07/17 07:24:58;;;;;;;;;;;;;;;;;;5005176;28;19918;-41
2022/07/17 07:27:24;;;;;;;;;;;;;;;;;;5006228;28;19955;-41
2022/07/17 07:29:50;;;;;;;;;;;;;;;;;;4994087;28;19928;-41
2022/07/17 07:32:16;;;;;;;;;;;;;;;;;;5005239;28;19914;-41
2022/07/17 07:34:41;;;;;;;;;;;;;;;;;;4987358;28;19945;-41
2022/07/17 07:37:07;;;;;;;;;;;;;;;;;;4988031;28;19910;-41
2022/07/17 07:39:33;;;;;;;;;;;;;;;;;;4994728;28;19913;-41
2022/07/17 07:41:59;;;;;;;;;;;;;;;;;;5006366;28;19921;-41
2022/07/17 07:44:25;;;;;;;;;;;;;;;;;;5007956;28;19917;-41
2022/07/17 07:46:51;;;;;;;;;;;;;;;;;;5002108;28;19913;-41
2022/07/17 07:49:17;;;;;;;;;;;;;;;;;;5007489;28;19910;-42
2022/07/17 07:51:43;;;;;;;;;;;;;;;;;;5005997;28;20055;-41
2022/07/17 07:54:09;;;;;;;;;;;;;;;;;;5005258;28;19917;-41
2022/07/17 07:56:36;;;;;;;;;;;;;;;;;;5006307;28;19913;-41
2022/07/17 07:59:02;;;;;;;;;;;;;;;;;;5006069;28;20374;-41
2022/07/17 08:01:27;;;;;;;;;;;;;;;;;;5002923;28;19924;-42
2022/07/17 08:03:53;;;;;;;;;;;;;;;;;;5003714;28;19913;-42
2022/07/17 08:06:19;;;;;;;;;;;;;;;;;;5006283;28;19910;-41
2022/07/17 08:08:45;;;;;;;;;;;;;;;;;;4996745;28;19966;-41
2022/07/17 08:11:11;;;;;;;;;;;;;;;;;;5002154;28;19921;-41
2022/07/17 08:13:37;;;;;;;;;;;;;;;;;;5006949;28;20378;-41
2022/07/17 08:16:03;;;;;;;;;;;;;;;;;;5007839;28;19968;-41
2022/07/17 08:18:29;;;;;;;;;;;;;;;;;;5000172;28;19918;-40
2022/07/17 08:20:55;;;;;;;;;;;;;;;;;;5000453;28;19921;-40
2022/07/17 08:23:21;;;;;;;;;;;;;;;;;;4987609;28;20318;-40
2022/07/17 08:25:47;;;;;;;;;;;;;;;;;;5001870;28;20443;-40
2022/07/17 08:28:13;;;;;;;;;;;;;;;;;;4997236;28;19913;-39
2022/07/17 08:30:39;;;;;;;;;;;;;;;;;;4988054;28;20004;-40
2022/07/17 08:33:06;;;;;;;;;;;;;;;;;;5005215;28;19972;-40
2022/07/17 08:35:32;;;;;;;;;;;;;;;;;;5006359;28;20302;-40
2022/07/17 08:38:00;;;;;;;;;;;;;;;;;;5007764;28;19914;-40
2022/07/17 08:40:26;;;;;;;;;;;;;;;;;;5008357;28;19913;-40
2022/07/17 08:42:52;;;;;;;;;;;;;;;;;;5006445;28;20409;-40
2022/07/17 08:45:18;;;;;;;;;;;;;;;;;;5007964;28;19914;-40
2022/07/17 08:47:44;;;;;;;;;;;;;;;;;;5007419;28;19909;-40
2022/07/17 08:50:10;;;;;;;;;;;;;;;;;;5007832;28;19913;-40
2022/07/17 08:52:36;;;;;;;;;;;;;;;;;;5007266;28;20389;-40
2022/07/17 08:55:02;;;;;;;;;;;;;;;;;;5007341;28;19932;-41
2022/07/17 08:57:28;;;;;;;;;;;;;;;;;;5005835;28;20374;-41
2022/07/17 08:59:54;;;;;;;;;;;;;;;;;;4994579;28;19956;-41
2022/07/17 09:02:20;;;;;;;;;;;;;;;;;;5018720;28;19982;-41
2022/07/17 09:04:46;;;;;;;;;;;;;;;;;;5023417;28;19919;-41
2022/07/17 09:07:12;;;;;;;;;;;;;;;;;;4998502;28;19917;-42
2022/07/17 09:09:38;;;;;;;;;;;;;;;;;;4990537;28;19984;-42
2022/07/17 09:12:04;;;;;;;;;;;;;;;;;;4992666;28;19917;-41
2022/07/17 09:14:30;;;;;;;;;;;;;;;;;;4996311;28;19922;-41
2022/07/17 09:16:56;;;;;;;;;;;;;;;;;;5006363;28;19913;-42
2022/07/17 09:19:22;;;;;;;;;;;;;;;;;;4999864;28;19914;-41
2022/07/17 09:21:48;;;;;;;;;;;;;;;;;;5000886;28;19932;-41
2022/07/17 09:24:14;;;;;;;;;;;;;;;;;;5000698;28;19914;-41
2022/07/17 09:26:40;;;;;;;;;;;;;;;;;;5001242;28;19913;-41
2022/07/17 09:29:06;;;;;;;;;;;;;;;;;;4992277;28;19914;-41
2022/07/17 09:31:32;;;;;;;;;;;;;;;;;;4993608;28;19918;-41
2022/07/17 09:33:59;;;;;;;;;;;;;;;;;;5005714;28;19920;-41
2022/07/17 09:36:25;;;;;;;;;;;;;;;;;;4990747;28;19921;-41
2022/07/17 09:38:50;;;;;;;;;;;;;;;;;;4990702;28;19914;-41
2022/07/17 09:41:18;;;;;;;;;;;;;;;;;;4990191;28;19921;-41
2022/07/17 09:43:44;;;;;;;;;;;;;;;;;;5006034;28;20286;-42
2022/07/17 09:46:10;;;;;;;;;;;;;;;;;;5009023;28;19913;-41
2022/07/17 09:48:37;;;;;;;;;;;;;;;;;;5008870;28;19913;-41
2022/07/17 09:51:03;;;;;;;;;;;;;;;;;;5008979;28;20283;-40
2022/07/17 09:53:29;;;;;;;;;;;;;;;;;;5008317;28;19910;-41
2022/07/17 09:55:56;;;;;;;;;;;;;;;;;;5009400;28;19913;-41
2022/07/17 09:58:22;;;;;;;;;;;;;;;;;;4990663;28;20324;-42
2022/07/17 10:00:48;;;;;;;;;;;;;;;;;;4994781;28;19930;-41
2022/07/17 10:03:14;;;;;;;;;;;;;;;;;;5006656;28;19910;-41
2022/07/17 10:05:40;;;;;;;;;;;;;;;;;;5003701;28;20369;-40
2022/07/17 10:08:07;;;;;;;;;;;;;;;;;;4989160;28;19920;-41
2022/07/17 10:10:33;;;;;;;;;;;;;;;;;;5003285;28;19952;-40
2022/07/17 10:12:59;;;;;;;;;;;;;;;;;;4987569;28;19957;-40
2022/07/17 10:15:25;;;;;;;;;;;;;;;;;;4993231;28;20470;-42
2022/07/17 10:17:51;;;;;;;;;;;;;;;;;;4995514;28;19918;-42
2022/07/17 10:20:17;;;;;;;;;;;;;;;;;;4988632;28;20947;-42
2022/07/17 10:22:43;;;;;;;;;;;;;;;;;;5002713;28;19928;-41
2022/07/17 10:25:09;;;;;;;;;;;;;;;;;;4990508;28;19913;-42
2022/07/17 10:27:35;;;;;;;;;;;;;;;;;;4988943;28;19920;-41
2022/07/17 10:30:02;;;;;;;;;;;;;;;;;;5004832;28;20677;-41
2022/07/17 10:32:28;;;;;;;;;;;;;;;;;;4990752;28;19918;-42
2022/07/17 10:34:54;;;;;;;;;;;;;;;;;;4992028;28;20512;-42
2022/07/17 10:37:20;;;;;;;;;;;;;;;;;;4999178;28;19917;-41
2022/07/17 10:39:46;;;;;;;;;;;;;;;;;;5005316;28;19917;-42
2022/07/17 10:42:12;;;;;;;;;;;;;;;;;;5008016;28;19948;-41
2022/07/17 10:44:37;;;;;;;;;;;;;;;;;;5009048;28;19956;-42
2022/07/17 10:47:04;;;;;;;;;;;;;;;;;;5009084;28;19909;-42
2022/07/17 10:49:31;;;;;;;;;;;;;;;;;;4997143;28;20008;-41
2022/07/17 10:51:56;;;;;;;;;;;;;;;;;;4995723;28;19918;-42
2022/07/17 10:54:22;;;;;;;;;;;;;;;;;;4998650;28;19920;-41
2022/07/17 10:56:48;;;;;;;;;;;;;;;;;;4989970;28;19921;-42
2022/07/17 10:59:14;;;;;;;;;;;;;;;;;;4989184;28;20057;-41
2022/07/17 11:01:40;;;;;;;;;;;;;;;;;;4996014;28;19952;-42
2022/07/17 11:04:06;;;;;;;;;;;;;;;;;;5000034;28;19917;-44
2022/07/17 11:06:32;;;;;;;;;;;;;;;;;;4991272;28;20497;-43
2022/07/17 11:08:59;;;;;;;;;;;;;;;;;;4988623;28;20042;-43
2022/07/17 11:11:25;;;;;;;;;;;;;;;;;;4994406;28;20556;-44
2022/07/17 11:13:51;;;;;;;;;;;;;;;;;;4996352;28;19956;-43
2022/07/17 11:16:17;;;;;;;;;;;;;;;;;;5005840;28;19924;-45
2022/07/17 11:18:43;;;;;;;;;;;;;;;;;;4992560;28;19914;-44
2022/07/17 11:21:09;;;;;;;;;;;;;;;;;;4988403;28;19914;-43
2022/07/17 11:23:35;;;;;;;;;;;;;;;;;;4995654;28;19917;-45
2022/07/17 11:26:01;;;;;;;;;;;;;;;;;;5001356;28;20091;-43
2022/07/17 11:28:27;;;;;;;;;;;;;;;;;;5008058;28;19913;-44
2022/07/17 11:30:53;;;;;;;;;;;;;;;;;;5006203;28;19948;-46
2022/07/17 11:33:19;;;;;;;;;;;;;;;;;;4991411;28;19936;-47
2022/07/17 11:35:45;;;;;;;;;;;;;;;;;;5002196;28;19919;-45
2022/07/17 11:38:11;;;;;;;;;;;;;;;;;;5007636;28;19909;-44
2022/07/17 11:40:37;;;;;;;;;;;;;;;;;;5007283;28;19917;-44
2022/07/17 11:43:05;;;;;;;;;;;;;;;;;;4998093;28;19968;-46
2022/07/17 11:45:31;;;;;;;;;;;;;;;;;;4994865;28;19913;-46
2022/07/17 11:47:57;;;;;;;;;;;;;;;;;;4998627;28;20537;-44
2022/07/17 11:50:23;;;;;;;;;;;;;;;;;;4996724;28;19913;-45
2022/07/17 11:52:49;;;;;;;;;;;;;;;;;;4994638;28;19917;-45
2022/07/17 11:55:15;;;;;;;;;;;;;;;;;;5005204;28;19959;-44
2022/07/17 11:57:41;;;;;;;;;;;;;;;;;;5007114;28;20388;-46
2022/07/17 12:00:08;;;;;;;;;;;;;;;;;;5005955;28;19948;-43
2022/07/17 12:02:34;;;;;;;;;;;;;;;;;;5006717;28;20616;-43
2022/07/17 12:05:00;;;;;;;;;;;;;;;;;;4992020;28;19914;-44
2022/07/17 12:07:26;;;;;;;;;;;;;;;;;;4998285;28;19964;-43
2022/07/17 12:09:52;;;;;;;;;;;;;;;;;;4987558;28;20668;-44
2022/07/17 12:12:18;;;;;;;;;;;;;;;;;;4994273;28;19927;-44
2022/07/17 12:14:44;;;;;;;;;;;;;;;;;;4987231;28;19961;-44
2022/07/17 12:17:10;;;;;;;;;;;;;;;;;;4996920;28;19971;-44
2022/07/17 12:19:36;;;;;;;;;;;;;;;;;;5007160;28;19949;-44
2022/07/17 12:22:02;;;;;;;;;;;;;;;;;;5001627;28;19917;-44
2022/07/17 12:24:28;;;;;;;;;;;;;;;;;;5001359;28;19928;-43
2022/07/17 12:26:54;;;;;;;;;;;;;;;;;;5004756;28;19915;-47
2022/07/17 12:29:20;;;;;;;;;;;;;;;;;;5003946;28;20338;-45
2022/07/17 12:31:46;;;;;;;;;;;;;;;;;;5001140;28;19989;-46
2022/07/17 12:34:12;;;;;;;;;;;;;;;;;;4987100;28;19976;-43
2022/07/17 12:36:38;;;;;;;;;;;;;;;;;;5002142;28;20390;-43
2022/07/17 12:39:05;;;;;;;;;;;;;;;;;;5006111;28;19909;-46
2022/07/17 12:41:31;;;;;;;;;;;;;;;;;;5007164;28;20305;-44
2022/07/17 12:43:57;;;;;;;;;;;;;;;;;;5006325;28;19910;-47
2022/07/17 12:46:23;;;;;;;;;;;;;;;;;;5007083;28;19918;-45
2022/07/17 12:48:49;;;;;;;;;;;;;;;;;;4988128;28;19914;-47
2022/07/17 12:51:15;;;;;;;;;;;;;;;;;;4991255;28;20001;-44
2022/07/17 12:53:40;;;;;;;;;;;;;;;;;;4995452;28;19913;-44
2022/07/17 12:56:07;;;;;;;;;;;;;;;;;;4988872;28;19917;-47
2022/07/17 12:58:33;;;;;;;;;;;;;;;;;;5002906;28;19917;-45
2022/07/17 13:00:59;;;;;;;;;;;;;;;;;;5003702;28;20000;-43
2022/07/17 13:03:25;;;;;;;;;;;;;;;;;;4999908;28;19921;-44
2022/07/17 13:05:51;;;;;;;;;;;;;;;;;;4996680;28;20047;-45
2022/07/17 13:08:18;;;;;;;;;;;;;;;;;;4994496;28;19921;-45
2022/07/17 13:10:44;;;;;;;;;;;;;;;;;;4995705;28;20295;-44
2022/07/17 13:13:10;;;;;;;;;;;;;;;;;;4999650;28;20020;-44
2022/07/17 13:15:35;;;;;;;;;;;;;;;;;;5003812;28;19917;-44
2022/07/17 13:18:01;;;;;;;;;;;;;;;;;;5000635;28;19913;-45
2022/07/17 13:20:27;;;;;;;;;;;;;;;;;;5002341;28;19921;-44
2022/07/17 13:22:53;;;;;;;;;;;;;;;;;;5000624;28;19974;-45
2022/07/17 13:25:19;;;;;;;;;;;;;;;;;;4996426;28;19941;-43
2022/07/17 13:27:45;;;;;;;;;;;;;;;;;;4997530;28;19914;-45
2022/07/17 13:30:11;;;;;;;;;;;;;;;;;;4997877;28;19969;-44
2022/07/17 13:32:37;;;;;;;;;;;;;;;;;;4996477;28;19914;-44
2022/07/17 13:35:03;;;;;;;;;;;;;;;;;;4994826;28;19918;-43
2022/07/17 13:37:29;;;;;;;;;;;;;;;;;;4989763;28;19955;-45
2022/07/17 13:39:55;;;;;;;;;;;;;;;;;;4995539;28;19913;-45
2022/07/17 13:42:21;;;;;;;;;;;;;;;;;;4996504;28;19922;-46
2022/07/17 13:44:47;;;;;;;;;;;;;;;;;;5003274;28;19919;-44
2022/07/17 13:47:13;;;;;;;;;;;;;;;;;;4999162;28;19961;-46
2022/07/17 13:49:38;;;;;;;;;;;;;;;;;;4997404;28;19972;-44
2022/07/17 13:52:04;;;;;;;;;;;;;;;;;;4996413;28;19968;-43
2022/07/17 13:54:30;;;;;;;;;;;;;;;;;;4992683;28;19913;-44
2022/07/17 13:56:57;;;;;;;;;;;;;;;;;;4993887;28;19945;-45
2022/07/17 13:59:23;;;;;;;;;;;;;;;;;;4997662;28;19917;-44
2022/07/17 14:01:49;;;;;;;;;;;;;;;;;;4994351;28;20430;-46
2022/07/17 14:04:15;;;;;;;;;;;;;;;;;;5002020;28;19913;-44
2022/07/17 14:06:41;;;;;;;;;;;;;;;;;;4995166;28;19928;-44
2022/07/17 14:09:07;;;;;;;;;;;;;;;;;;5002208;28;19914;-44
2022/07/17 14:11:33;;;;;;;;;;;;;;;;;;4993431;28;19929;-45
2022/07/17 14:13:59;;;;;;;;;;;;;;;;;;4996587;28;19913;-44
2022/07/17 14:16:26;;;;;;;;;;;;;;;;;;4999835;28;19921;-44
2022/07/17 14:18:58;;;;;;;;;;;;;;;;;;4992195;28;19914;-45
2022/07/17 14:21:24;;;;;;;;;;;;;;;;;;5004682;28;20386;-45
2022/07/17 14:23:50;;;;;;;;;;;;;;;;;;4990809;28;19914;-44
2022/07/17 14:26:16;;;;;;;;;;;;;;;;;;4986940;28;19960;-45
2022/07/17 14:28:41;;;;;;;;;;;;;;;;;;4990632;28;19914;-46
2022/07/17 14:31:07;;;;;;;;;;;;;;;;;;4988056;28;20167;-45
2022/07/17 14:33:33;;;;;;;;;;;;;;;;;;4998923;28;19917;-45
2022/07/17 14:36:00;;;;;;;;;;;;;;;;;;4990865;28;19952;-46
2022/07/17 14:38:27;;;;;;;;;;;;;;;;;;4989086;28;19918;-47
2022/07/17 14:40:53;;;;;;;;;;;;;;;;;;4995152;28;20406;-45
2022/07/17 14:43:20;;;;;;;;;;;;;;;;;;4998049;28;19979;-48
2022/07/17 14:45:47;;;;;;;;;;;;;;;;;;5001278;28;20210;-45
2022/07/17 14:48:14;;;;;;;;;;;;;;;;;;4996877;28;19924;-45
2022/07/17 14:50:39;;;;;;;;;;;;;;;;;;5001395;28;20434;-44
2022/07/17 14:53:05;;;;;;;;;;;;;;;;;;4997185;28;19914;-48
2022/07/17 14:55:31;;;;;;;;;;;;;;;;;;4991726;28;19918;-45
2022/07/17 14:57:57;;;;;;;;;;;;;;;;;;4992881;28;20332;-45
2022/07/17 15:00:23;;;;;;;;;;;;;;;;;;4993394;28;19917;-45
2022/07/17 15:02:49;;;;;;;;;;;;;;;;;;4999265;28;19928;-46
2022/07/17 15:05:15;;;;;;;;;;;;;;;;;;4999734;28;20357;-45
2022/07/17 15:07:41;;;;;;;;;;;;;;;;;;4992337;28;20000;-46
2022/07/17 15:10:07;;;;;;;;;;;;;;;;;;5005730;28;20198;-47
2022/07/17 15:12:32;;;;;;;;;;;;;;;;;;4992066;28;19921;-46
2022/07/17 15:14:58;;;;;;;;;;;;;;;;;;4987314;28;19925;-46
2022/07/17 15:17:24;;;;;;;;;;;;;;;;;;5005146;28;19917;-46
2022/07/17 15:19:50;;;;;;;;;;;;;;;;;;4995529;28;20012;-45
2022/07/17 15:22:16;;;;;;;;;;;;;;;;;;4991265;28;20450;-45
2022/07/17 15:24:42;;;;;;;;;;;;;;;;;;4989149;28;19918;-45
2022/07/17 15:27:08;;;;;;;;;;;;;;;;;;4995958;28;19965;-47
2022/07/17 15:29:34;;;;;;;;;;;;;;;;;;4998941;28;20008;-44
2022/07/17 15:32:00;;;;;;;;;;;;;;;;;;4992411;28;19921;-46
2022/07/17 15:34:26;;;;;;;;;;;;;;;;;;4994816;28;19918;-46
2022/07/17 15:36:52;;;;;;;;;;;;;;;;;;5002729;28;20471;-47
2022/07/17 15:39:19;;;;;;;;;;;;;;;;;;4990964;28;19968;-44
2022/07/17 15:41:45;;;;;;;;;;;;;;;;;;4997301;28;19917;-47
2022/07/17 15:44:11;;;;;;;;;;;;;;;;;;4995364;28;19996;-44
2022/07/17 15:46:37;;;;;;;;;;;;;;;;;;4991919;28;20313;-45
2022/07/17 15:49:03;;;;;;;;;;;;;;;;;;4989995;28;19914;-44
2022/07/17 15:51:29;;;;;;;;;;;;;;;;;;4989080;28;20322;-46
2022/07/17 15:53:55;;;;;;;;;;;;;;;;;;4999278;28;19967;-45
2022/07/17 15:56:21;;;;;;;;;;;;;;;;;;4990676;28;19913;-45
2022/07/17 15:58:47;;;;;;;;;;;;;;;;;;4996262;28;20154;-44
2022/07/17 16:01:13;;;;;;;;;;;;;;;;;;4992353;28;19918;-45
2022/07/17 16:03:39;;;;;;;;;;;;;;;;;;4993631;28;20334;-45
2022/07/17 16:06:06;;;;;;;;;;;;;;;;;;4997412;28;19925;-45
2022/07/17 16:08:33;;;;;;;;;;;;;;;;;;4995996;28;19913;-45
2022/07/17 16:10:59;;;;;;;;;;;;;;;;;;4996811;28;19922;-45
2022/07/17 16:13:25;;;;;;;;;;;;;;;;;;4997165;28;19914;-46
2022/07/17 16:15:51;;;;;;;;;;;;;;;;;;4994625;28;19921;-45
2022/07/17 16:18:17;;;;;;;;;;;;;;;;;;4996325;28;19921;-49
2022/07/17 16:20:44;;;;;;;;;;;;;;;;;;4992292;28;20274;-45
2022/07/17 16:23:10;;;;;;;;;;;;;;;;;;4999241;28;20112;-45
2022/07/17 16:25:36;;;;;;;;;;;;;;;;;;4996827;28;20462;-45
2022/07/17 16:28:02;;;;;;;;;;;;;;;;;;4993277;28;20051;-46
2022/07/17 16:30:29;;;;;;;;;;;;;;;;;;4992402;28;19975;-47
2022/07/17 16:32:55;;;;;;;;;;;;;;;;;;4998855;28;19952;-44
2022/07/17 16:35:20;;;;;;;;;;;;;;;;;;4997585;28;20357;-49
2022/07/17 16:37:46;;;;;;;;;;;;;;;;;;4995673;28;19922;-47